sensor_id;sensor_type;location;lat;lon;timestamp;P1;durP1;ratioP1;P2;durP2;ratioP2
14692;SDS011;7435;50.842;4.258;2022-10-19T00:01:36;344.97;;;119.50;;
14692;SDS011;7435;50.842;4.258;2022-10-19T00:04:04;353.60;;;135.70;;
14692;SDS011;7435;50.842;4.258;2022-10-19T00:06:33;362.55;;;151.40;;
14692;SDS011;7435;50.842;4.258;2022-10-19T00:09:02;363.02;;;150.27;;
14692;SDS011;7435;50.842;4.258;2022-10-19T00:11:29;371.77;;;185.27;;
14692;SDS011;7435;50.842;4.258;2022-10-19T00:13:57;354.25;;;135.80;;
14692;SDS011;7435;50.842;4.258;2022-10-19T00:16:25;363.35;;;158.70;;
14692;SDS011;7435;50.842;4.258;2022-10-19T00:18:54;363.45;;;172.18;;
14692;SDS011;7435;50.842;4.258;2022-10-19T00:21:22;366.27;;;183.80;;
14692;SDS011;7435;50.842;4.258;2022-10-19T00:23:51;371.95;;;167.35;;
14692;SDS011;7435;50.842;4.258;2022-10-19T00:26:18;365.10;;;164.20;;
14692;SDS011;7435;50.842;4.258;2022-10-19T00:28:45;397.67;;;262.92;;
14692;SDS011;7435;50.842;4.258;2022-10-19T00:31:13;370.58;;;194.30;;
14692;SDS011;7435;50.842;4.258;2022-10-19T00:33:41;336.40;;;105.00;;
14692;SDS011;7435;50.842;4.258;2022-10-19T00:36:14;338.15;;;110.63;;
14692;SDS011;7435;50.842;4.258;2022-10-19T00:38:41;350.20;;;141.35;;
14692;SDS011;7435;50.842;4.258;2022-10-19T00:41:10;360.02;;;151.40;;
14692;SDS011;7435;50.842;4.258;2022-10-19T00:43:51;354.27;;;142.68;;
14692;SDS011;7435;50.842;4.258;2022-10-19T00:46:18;347.80;;;121.00;;
14692;SDS011;7435;50.842;4.258;2022-10-19T00:48:45;342.23;;;123.70;;
14692;SDS011;7435;50.842;4.258;2022-10-19T00:51:13;351.35;;;126.50;;
14692;SDS011;7435;50.842;4.258;2022-10-19T00:53:40;345.63;;;141.88;;
14692;SDS011;7435;50.842;4.258;2022-10-19T00:56:11;347.70;;;138.20;;
14692;SDS011;7435;50.842;4.258;2022-10-19T00:58:38;357.35;;;151.48;;
14692;SDS011;7435;50.842;4.258;2022-10-19T01:01:07;358.40;;;148.85;;
14692;SDS011;7435;50.842;4.258;2022-10-19T01:03:35;350.63;;;136.23;;
14692;SDS011;7435;50.842;4.258;2022-10-19T01:06:02;354.23;;;150.90;;
14692;SDS011;7435;50.842;4.258;2022-10-19T01:08:29;353.67;;;144.48;;
14692;SDS011;7435;50.842;4.258;2022-10-19T01:10:58;339.95;;;116.18;;
14692;SDS011;7435;50.842;4.258;2022-10-19T01:13:34;338.05;;;118.25;;
14692;SDS011;7435;50.842;4.258;2022-10-19T01:16:06;342.17;;;123.27;;
14692;SDS011;7435;50.842;4.258;2022-10-19T01:18:38;349.35;;;125.50;;
14692;SDS011;7435;50.842;4.258;2022-10-19T01:21:12;343.73;;;121.40;;
14692;SDS011;7435;50.842;4.258;2022-10-19T01:24:10;351.67;;;125.32;;
14692;SDS011;7435;50.842;4.258;2022-10-19T01:26:52;340.75;;;118.70;;
14692;SDS011;7435;50.842;4.258;2022-10-19T01:29:30;348.83;;;124.88;;
14692;SDS011;7435;50.842;4.258;2022-10-19T01:32:04;347.50;;;129.20;;
14692;SDS011;7435;50.842;4.258;2022-10-19T01:34:33;344.75;;;126.25;;
14692;SDS011;7435;50.842;4.258;2022-10-19T01:37:05;358.30;;;137.32;;
14692;SDS011;7435;50.842;4.258;2022-10-19T01:39:35;342.20;;;123.35;;
14692;SDS011;7435;50.842;4.258;2022-10-19T01:42:05;346.65;;;128.13;;
14692;SDS011;7435;50.842;4.258;2022-10-19T01:44:36;359.60;;;165.85;;
14692;SDS011;7435;50.842;4.258;2022-10-19T01:47:07;347.40;;;135.15;;
14692;SDS011;7435;50.842;4.258;2022-10-19T01:49:37;347.77;;;135.23;;
14692;SDS011;7435;50.842;4.258;2022-10-19T01:52:09;398.23;;;240.65;;
14692;SDS011;7435;50.842;4.258;2022-10-19T01:54:38;387.42;;;223.98;;
14692;SDS011;7435;50.842;4.258;2022-10-19T01:57:07;391.33;;;237.75;;
14692;SDS011;7435;50.842;4.258;2022-10-19T01:59:35;394.40;;;249.03;;
14692;SDS011;7435;50.842;4.258;2022-10-19T02:02:03;392.30;;;229.48;;
14692;SDS011;7435;50.842;4.258;2022-10-19T02:04:33;375.05;;;195.45;;
14692;SDS011;7435;50.842;4.258;2022-10-19T02:07:01;384.87;;;231.50;;
14692;SDS011;7435;50.842;4.258;2022-10-19T02:09:30;318.67;;;89.82;;
14692;SDS011;7435;50.842;4.258;2022-10-19T02:11:58;319.60;;;92.80;;
14692;SDS011;7435;50.842;4.258;2022-10-19T02:14:28;319.92;;;91.07;;
14692;SDS011;7435;50.842;4.258;2022-10-19T02:16:58;332.02;;;97.15;;
14692;SDS011;7435;50.842;4.258;2022-10-19T02:19:27;336.33;;;105.38;;
14692;SDS011;7435;50.842;4.258;2022-10-19T02:21:55;338.92;;;103.55;;
14692;SDS011;7435;50.842;4.258;2022-10-19T02:24:23;339.48;;;109.70;;
14692;SDS011;7435;50.842;4.258;2022-10-19T02:26:50;334.67;;;105.47;;
14692;SDS011;7435;50.842;4.258;2022-10-19T02:29:17;344.67;;;117.07;;
14692;SDS011;7435;50.842;4.258;2022-10-19T02:31:45;341.27;;;104.53;;
14692;SDS011;7435;50.842;4.258;2022-10-19T02:34:12;342.27;;;115.57;;
14692;SDS011;7435;50.842;4.258;2022-10-19T02:36:39;338.35;;;106.45;;
14692;SDS011;7435;50.842;4.258;2022-10-19T02:39:08;339.90;;;110.53;;
14692;SDS011;7435;50.842;4.258;2022-10-19T02:41:36;335.73;;;108.80;;
14692;SDS011;7435;50.842;4.258;2022-10-19T02:44:06;332.38;;;105.93;;
14692;SDS011;7435;50.842;4.258;2022-10-19T02:46:37;336.00;;;118.50;;
14692;SDS011;7435;50.842;4.258;2022-10-19T02:49:06;341.50;;;118.18;;
14692;SDS011;7435;50.842;4.258;2022-10-19T02:51:36;315.92;;;82.95;;
14692;SDS011;7435;50.842;4.258;2022-10-19T02:54:04;329.20;;;94.43;;
14692;SDS011;7435;50.842;4.258;2022-10-19T02:56:33;334.55;;;100.13;;
14692;SDS011;7435;50.842;4.258;2022-10-19T02:59:00;338.50;;;100.30;;
14692;SDS011;7435;50.842;4.258;2022-10-19T03:01:27;331.83;;;101.13;;
14692;SDS011;7435;50.842;4.258;2022-10-19T03:03:54;334.60;;;104.75;;
14692;SDS011;7435;50.842;4.258;2022-10-19T03:06:22;336.58;;;104.15;;
14692;SDS011;7435;50.842;4.258;2022-10-19T03:08:49;335.47;;;104.27;;
14692;SDS011;7435;50.842;4.258;2022-10-19T03:11:16;332.52;;;103.20;;
14692;SDS011;7435;50.842;4.258;2022-10-19T03:13:45;331.80;;;100.10;;
14692;SDS011;7435;50.842;4.258;2022-10-19T03:16:12;331.30;;;99.75;;
14692;SDS011;7435;50.842;4.258;2022-10-19T03:18:39;333.65;;;99.55;;
14692;SDS011;7435;50.842;4.258;2022-10-19T03:21:08;334.38;;;98.05;;
14692;SDS011;7435;50.842;4.258;2022-10-19T03:23:36;334.95;;;104.50;;
14692;SDS011;7435;50.842;4.258;2022-10-19T03:26:03;337.90;;;108.72;;
14692;SDS011;7435;50.842;4.258;2022-10-19T03:28:30;334.45;;;100.55;;
14692;SDS011;7435;50.842;4.258;2022-10-19T03:30:59;345.42;;;114.40;;
14692;SDS011;7435;50.842;4.258;2022-10-19T03:33:26;340.52;;;102.72;;
14692;SDS011;7435;50.842;4.258;2022-10-19T03:36:13;335.40;;;105.00;;
14692;SDS011;7435;50.842;4.258;2022-10-19T03:38:41;361.40;;;104.28;;
14692;SDS011;7435;50.842;4.258;2022-10-19T03:41:08;340.90;;;109.60;;
14692;SDS011;7435;50.842;4.258;2022-10-19T03:43:35;337.23;;;99.37;;
14692;SDS011;7435;50.842;4.258;2022-10-19T03:46:04;335.50;;;105.50;;
14692;SDS011;7435;50.842;4.258;2022-10-19T03:48:31;335.38;;;102.38;;
14692;SDS011;7435;50.842;4.258;2022-10-19T03:50:59;334.83;;;103.03;;
14692;SDS011;7435;50.842;4.258;2022-10-19T03:53:26;338.03;;;102.50;;
14692;SDS011;7435;50.842;4.258;2022-10-19T03:55:59;339.67;;;104.00;;
14692;SDS011;7435;50.842;4.258;2022-10-19T03:58:27;346.30;;;107.40;;
14692;SDS011;7435;50.842;4.258;2022-10-19T04:00:54;342.30;;;107.97;;
14692;SDS011;7435;50.842;4.258;2022-10-19T04:03:23;339.65;;;99.70;;
14692;SDS011;7435;50.842;4.258;2022-10-19T04:05:50;333.30;;;95.32;;
14692;SDS011;7435;50.842;4.258;2022-10-19T04:08:18;343.53;;;107.60;;
14692;SDS011;7435;50.842;4.258;2022-10-19T04:10:45;331.80;;;99.63;;
14692;SDS011;7435;50.842;4.258;2022-10-19T04:13:12;333.27;;;103.60;;
14692;SDS011;7435;50.842;4.258;2022-10-19T04:15:39;335.83;;;107.97;;
14692;SDS011;7435;50.842;4.258;2022-10-19T04:18:06;337.40;;;103.55;;
14692;SDS011;7435;50.842;4.258;2022-10-19T04:20:35;346.48;;;105.10;;
14692;SDS011;7435;50.842;4.258;2022-10-19T04:23:06;336.67;;;105.15;;
14692;SDS011;7435;50.842;4.258;2022-10-19T04:25:33;337.50;;;104.00;;
14692;SDS011;7435;50.842;4.258;2022-10-19T04:28:00;338.27;;;103.50;;
14692;SDS011;7435;50.842;4.258;2022-10-19T04:30:27;339.02;;;106.72;;
14692;SDS011;7435;50.842;4.258;2022-10-19T04:32:54;342.75;;;103.80;;
14692;SDS011;7435;50.842;4.258;2022-10-19T04:35:22;345.13;;;113.10;;
14692;SDS011;7435;50.842;4.258;2022-10-19T04:37:50;336.23;;;100.80;;
14692;SDS011;7435;50.842;4.258;2022-10-19T04:40:17;348.77;;;112.77;;
14692;SDS011;7435;50.842;4.258;2022-10-19T04:42:45;342.17;;;106.57;;
14692;SDS011;7435;50.842;4.258;2022-10-19T04:45:12;338.20;;;106.72;;
14692;SDS011;7435;50.842;4.258;2022-10-19T04:47:39;336.45;;;103.15;;
14692;SDS011;7435;50.842;4.258;2022-10-19T04:50:07;335.90;;;106.88;;
14692;SDS011;7435;50.842;4.258;2022-10-19T04:52:34;334.60;;;106.25;;
14692;SDS011;7435;50.842;4.258;2022-10-19T04:55:03;341.27;;;106.20;;
14692;SDS011;7435;50.842;4.258;2022-10-19T04:57:30;338.48;;;101.13;;
14692;SDS011;7435;50.842;4.258;2022-10-19T04:59:57;340.42;;;111.32;;
14692;SDS011;7435;50.842;4.258;2022-10-19T05:02:24;339.33;;;103.20;;
14692;SDS011;7435;50.842;4.258;2022-10-19T05:04:52;339.02;;;106.28;;
14692;SDS011;7435;50.842;4.258;2022-10-19T05:07:19;332.67;;;101.60;;
14692;SDS011;7435;50.842;4.258;2022-10-19T05:09:46;339.43;;;101.50;;
14692;SDS011;7435;50.842;4.258;2022-10-19T05:12:15;351.83;;;106.80;;
14692;SDS011;7435;50.842;4.258;2022-10-19T05:14:42;341.20;;;108.38;;
14692;SDS011;7435;50.842;4.258;2022-10-19T05:17:09;342.35;;;113.70;;
14692;SDS011;7435;50.842;4.258;2022-10-19T05:19:36;342.85;;;108.78;;
14692;SDS011;7435;50.842;4.258;2022-10-19T05:22:04;341.73;;;103.25;;
14692;SDS011;7435;50.842;4.258;2022-10-19T05:24:31;333.55;;;102.78;;
14692;SDS011;7435;50.842;4.258;2022-10-19T05:26:58;336.52;;;103.97;;
14692;SDS011;7435;50.842;4.258;2022-10-19T05:29:27;336.67;;;105.30;;
14692;SDS011;7435;50.842;4.258;2022-10-19T05:31:54;338.87;;;102.17;;
14692;SDS011;7435;50.842;4.258;2022-10-19T05:34:21;333.75;;;104.32;;
14692;SDS011;7435;50.842;4.258;2022-10-19T05:36:48;339.20;;;101.88;;
14692;SDS011;7435;50.842;4.258;2022-10-19T05:39:16;348.23;;;104.03;;
14692;SDS011;7435;50.842;4.258;2022-10-19T05:41:44;334.15;;;100.00;;
14692;SDS011;7435;50.842;4.258;2022-10-19T05:44:17;340.75;;;104.55;;
14692;SDS011;7435;50.842;4.258;2022-10-19T05:46:46;348.88;;;96.65;;
14692;SDS011;7435;50.842;4.258;2022-10-19T05:49:14;347.77;;;105.25;;
14692;SDS011;7435;50.842;4.258;2022-10-19T05:51:42;341.83;;;99.60;;
14692;SDS011;7435;50.842;4.258;2022-10-19T05:54:09;348.05;;;105.72;;
14692;SDS011;7435;50.842;4.258;2022-10-19T05:56:38;334.95;;;102.38;;
14692;SDS011;7435;50.842;4.258;2022-10-19T05:59:05;344.15;;;107.85;;
14692;SDS011;7435;50.842;4.258;2022-10-19T06:01:33;338.30;;;106.50;;
14692;SDS011;7435;50.842;4.258;2022-10-19T06:04:02;340.73;;;104.23;;
14692;SDS011;7435;50.842;4.258;2022-10-19T06:06:30;345.17;;;114.82;;
14692;SDS011;7435;50.842;4.258;2022-10-19T06:08:58;389.45;;;120.88;;
14692;SDS011;7435;50.842;4.258;2022-10-19T06:11:26;346.47;;;112.90;;
14692;SDS011;7435;50.842;4.258;2022-10-19T06:13:54;349.08;;;111.07;;
14692;SDS011;7435;50.842;4.258;2022-10-19T06:16:22;343.90;;;107.78;;
14692;SDS011;7435;50.842;4.258;2022-10-19T06:18:51;343.35;;;107.93;;
14692;SDS011;7435;50.842;4.258;2022-10-19T06:21:20;339.73;;;110.78;;
14692;SDS011;7435;50.842;4.258;2022-10-19T06:23:48;347.58;;;111.72;;
14692;SDS011;7435;50.842;4.258;2022-10-19T06:26:16;340.97;;;114.50;;
14692;SDS011;7435;50.842;4.258;2022-10-19T06:28:47;340.50;;;115.13;;
14692;SDS011;7435;50.842;4.258;2022-10-19T06:31:15;340.70;;;110.07;;
14692;SDS011;7435;50.842;4.258;2022-10-19T06:33:43;343.58;;;116.45;;
14692;SDS011;7435;50.842;4.258;2022-10-19T06:39:06;348.10;;;119.53;;
14692;SDS011;7435;50.842;4.258;2022-10-19T06:41:33;343.42;;;114.00;;
14692;SDS011;7435;50.842;4.258;2022-10-19T06:44:01;344.20;;;112.65;;
14692;SDS011;7435;50.842;4.258;2022-10-19T06:46:31;343.30;;;115.15;;
14692;SDS011;7435;50.842;4.258;2022-10-19T06:49:03;346.73;;;107.80;;
14692;SDS011;7435;50.842;4.258;2022-10-19T06:51:34;326.65;;;96.45;;
14692;SDS011;7435;50.842;4.258;2022-10-19T06:56:39;239.17;;;48.27;;
14692;SDS011;7435;50.842;4.258;2022-10-19T06:59:06;23.10;;;8.00;;
14692;SDS011;7435;50.842;4.258;2022-10-19T07:01:33;12.70;;;5.82;;
14692;SDS011;7435;50.842;4.258;2022-10-19T07:04:00;12.75;;;6.53;;
14692;SDS011;7435;50.842;4.258;2022-10-19T07:09:10;13.40;;;6.40;;
14692;SDS011;7435;50.842;4.258;2022-10-19T07:11:49;108.87;;;25.77;;
14692;SDS011;7435;50.842;4.258;2022-10-19T07:14:16;296.02;;;67.30;;
14692;SDS011;7435;50.842;4.258;2022-10-19T07:16:44;297.20;;;66.68;;
14692;SDS011;7435;50.842;4.258;2022-10-19T07:19:11;299.92;;;71.60;;
14692;SDS011;7435;50.842;4.258;2022-10-19T07:21:38;303.50;;;76.47;;
14692;SDS011;7435;50.842;4.258;2022-10-19T07:24:07;305.02;;;75.82;;
14692;SDS011;7435;50.842;4.258;2022-10-19T07:26:35;308.58;;;73.32;;
14692;SDS011;7435;50.842;4.258;2022-10-19T07:29:04;296.42;;;68.85;;
14692;SDS011;7435;50.842;4.258;2022-10-19T07:31:31;305.45;;;72.90;;
14692;SDS011;7435;50.842;4.258;2022-10-19T07:34:16;378.98;;;81.93;;
14692;SDS011;7435;50.842;4.258;2022-10-19T07:36:49;315.90;;;75.57;;
14692;SDS011;7435;50.842;4.258;2022-10-19T07:39:17;304.13;;;74.03;;
14692;SDS011;7435;50.842;4.258;2022-10-19T07:41:44;299.88;;;71.70;;
14692;SDS011;7435;50.842;4.258;2022-10-19T07:44:14;290.38;;;64.97;;
14692;SDS011;7435;50.842;4.258;2022-10-19T07:46:41;304.08;;;81.45;;
14692;SDS011;7435;50.842;4.258;2022-10-19T07:49:10;222.30;;;45.73;;
14692;SDS011;7435;50.842;4.258;2022-10-19T07:51:40;15.02;;;6.90;;
14692;SDS011;7435;50.842;4.258;2022-10-19T07:54:07;24.83;;;12.50;;
14692;SDS011;7435;50.842;4.258;2022-10-19T07:56:35;172.38;;;45.17;;
14692;SDS011;7435;50.842;4.258;2022-10-19T07:59:02;213.77;;;43.25;;
14692;SDS011;7435;50.842;4.258;2022-10-19T08:01:31;232.27;;;44.20;;
14692;SDS011;7435;50.842;4.258;2022-10-19T08:04:01;268.90;;;55.63;;
14692;SDS011;7435;50.842;4.258;2022-10-19T08:06:28;280.73;;;63.08;;
14692;SDS011;7435;50.842;4.258;2022-10-19T08:08:56;244.77;;;46.67;;
14692;SDS011;7435;50.842;4.258;2022-10-19T08:11:24;283.30;;;63.53;;
14692;SDS011;7435;50.842;4.258;2022-10-19T08:13:51;282.25;;;63.17;;
14692;SDS011;7435;50.842;4.258;2022-10-19T08:16:19;299.55;;;74.80;;
14692;SDS011;7435;50.842;4.258;2022-10-19T08:18:48;297.47;;;73.70;;
14692;SDS011;7435;50.842;4.258;2022-10-19T08:21:15;311.75;;;84.43;;
14692;SDS011;7435;50.842;4.258;2022-10-19T08:23:42;315.65;;;90.35;;
14692;SDS011;7435;50.842;4.258;2022-10-19T08:26:09;312.48;;;84.07;;
14692;SDS011;7435;50.842;4.258;2022-10-19T08:28:37;314.17;;;89.47;;
14692;SDS011;7435;50.842;4.258;2022-10-19T08:31:10;379.00;;;175.82;;
14692;SDS011;7435;50.842;4.258;2022-10-19T08:33:38;328.23;;;92.50;;
14692;SDS011;7435;50.842;4.258;2022-10-19T08:36:07;282.57;;;60.43;;
14692;SDS011;7435;50.842;4.258;2022-10-19T08:38:35;284.40;;;58.63;;
14692;SDS011;7435;50.842;4.258;2022-10-19T08:41:03;331.73;;;109.70;;
14692;SDS011;7435;50.842;4.258;2022-10-19T08:43:33;290.17;;;60.93;;
14692;SDS011;7435;50.842;4.258;2022-10-19T08:46:05;287.40;;;58.23;;
14692;SDS011;7435;50.842;4.258;2022-10-19T08:48:36;316.00;;;93.63;;
14692;SDS011;7435;50.842;4.258;2022-10-19T08:51:08;288.07;;;58.97;;
14692;SDS011;7435;50.842;4.258;2022-10-19T08:53:38;298.77;;;67.00;;
14692;SDS011;7435;50.842;4.258;2022-10-19T08:56:14;300.90;;;71.03;;
14692;SDS011;7435;50.842;4.258;2022-10-19T08:58:51;308.67;;;66.37;;
14692;SDS011;7435;50.842;4.258;2022-10-19T09:01:24;309.50;;;67.93;;
14692;SDS011;7435;50.842;4.258;2022-10-19T09:03:54;304.10;;;69.33;;
14692;SDS011;7435;50.842;4.258;2022-10-19T09:06:27;281.63;;;57.80;;
14692;SDS011;7435;50.842;4.258;2022-10-19T09:08:55;293.27;;;67.83;;
14692;SDS011;7435;50.842;4.258;2022-10-19T09:11:23;354.45;;;148.82;;
14692;SDS011;7435;50.842;4.258;2022-10-19T09:13:54;337.60;;;136.77;;
14692;SDS011;7435;50.842;4.258;2022-10-19T09:16:22;365.63;;;182.03;;
14692;SDS011;7435;50.842;4.258;2022-10-19T09:18:51;401.77;;;298.25;;
14692;SDS011;7435;50.842;4.258;2022-10-19T09:21:19;359.60;;;181.20;;
14692;SDS011;7435;50.842;4.258;2022-10-19T09:23:51;360.77;;;187.38;;
14692;SDS011;7435;50.842;4.258;2022-10-19T09:26:21;359.70;;;186.40;;
14692;SDS011;7435;50.842;4.258;2022-10-19T09:28:51;363.98;;;171.90;;
14692;SDS011;7435;50.842;4.258;2022-10-19T09:31:21;357.83;;;162.80;;
14692;SDS011;7435;50.842;4.258;2022-10-19T09:33:52;353.63;;;173.63;;
14692;SDS011;7435;50.842;4.258;2022-10-19T09:36:21;355.45;;;158.95;;
14692;SDS011;7435;50.842;4.258;2022-10-19T09:38:48;360.40;;;182.43;;
14692;SDS011;7435;50.842;4.258;2022-10-19T09:41:18;361.67;;;184.07;;
14692;SDS011;7435;50.842;4.258;2022-10-19T09:43:48;367.52;;;198.75;;
14692;SDS011;7435;50.842;4.258;2022-10-19T09:46:23;373.95;;;218.45;;
14692;SDS011;7435;50.842;4.258;2022-10-19T09:48:52;357.13;;;192.50;;
14692;SDS011;7435;50.842;4.258;2022-10-19T09:51:20;353.27;;;189.50;;
14692;SDS011;7435;50.842;4.258;2022-10-19T09:53:48;346.95;;;168.70;;
14692;SDS011;7435;50.842;4.258;2022-10-19T09:56:18;349.02;;;171.05;;
14692;SDS011;7435;50.842;4.258;2022-10-19T09:58:46;344.02;;;162.48;;
14692;SDS011;7435;50.842;4.258;2022-10-19T10:01:27;355.20;;;180.63;;
14692;SDS011;7435;50.842;4.258;2022-10-19T10:04:03;346.48;;;171.27;;
14692;SDS011;7435;50.842;4.258;2022-10-19T10:06:30;347.67;;;162.48;;
14692;SDS011;7435;50.842;4.258;2022-10-19T10:08:57;342.98;;;161.48;;
14692;SDS011;7435;50.842;4.258;2022-10-19T10:11:27;352.48;;;177.23;;
14692;SDS011;7435;50.842;4.258;2022-10-19T10:13:56;346.38;;;155.65;;
14692;SDS011;7435;50.842;4.258;2022-10-19T10:16:27;343.93;;;149.90;;
14692;SDS011;7435;50.842;4.258;2022-10-19T10:18:57;340.98;;;147.00;;
14692;SDS011;7435;50.842;4.258;2022-10-19T10:21:26;349.05;;;166.50;;
14692;SDS011;7435;50.842;4.258;2022-10-19T10:24:00;348.85;;;169.98;;
14692;SDS011;7435;50.842;4.258;2022-10-19T10:26:29;348.45;;;150.57;;
14692;SDS011;7435;50.842;4.258;2022-10-19T10:28:56;339.00;;;148.43;;
14692;SDS011;7435;50.842;4.258;2022-10-19T10:31:24;337.17;;;139.90;;
14692;SDS011;7435;50.842;4.258;2022-10-19T10:33:53;340.38;;;142.93;;
14692;SDS011;7435;50.842;4.258;2022-10-19T10:36:22;345.58;;;160.23;;
14692;SDS011;7435;50.842;4.258;2022-10-19T10:38:50;276.43;;;66.10;;
14692;SDS011;7435;50.842;4.258;2022-10-19T10:41:19;265.40;;;57.30;;
14692;SDS011;7435;50.842;4.258;2022-10-19T10:43:50;289.13;;;74.50;;
14692;SDS011;7435;50.842;4.258;2022-10-19T10:46:19;222.20;;;52.17;;
14692;SDS011;7435;50.842;4.258;2022-10-19T10:48:50;18.67;;;17.02;;
14692;SDS011;7435;50.842;4.258;2022-10-19T10:51:19;4.13;;;2.22;;
14692;SDS011;7435;50.842;4.258;2022-10-19T10:53:46;3.35;;;2.15;;
14692;SDS011;7435;50.842;4.258;2022-10-19T10:56:21;6.78;;;2.03;;
14692;SDS011;7435;50.842;4.258;2022-10-19T10:58:52;7.72;;;2.47;;
14692;SDS011;7435;50.842;4.258;2022-10-19T11:01:21;3.78;;;2.35;;
14692;SDS011;7435;50.842;4.258;2022-10-19T11:03:50;5.13;;;2.17;;
14692;SDS011;7435;50.842;4.258;2022-10-19T11:06:18;4.60;;;1.58;;
14692;SDS011;7435;50.842;4.258;2022-10-19T11:08:48;3.13;;;1.77;;
14692;SDS011;7435;50.842;4.258;2022-10-19T11:11:16;7.15;;;2.88;;
14692;SDS011;7435;50.842;4.258;2022-10-19T11:13:46;5.93;;;2.33;;
14692;SDS011;7435;50.842;4.258;2022-10-19T11:16:16;4.63;;;2.70;;
14692;SDS011;7435;50.842;4.258;2022-10-19T11:18:45;5.38;;;2.88;;
14692;SDS011;7435;50.842;4.258;2022-10-19T11:21:14;6.55;;;2.25;;
14692;SDS011;7435;50.842;4.258;2022-10-19T11:23:46;5.82;;;2.20;;
14692;SDS011;7435;50.842;4.258;2022-10-19T11:26:22;6.18;;;2.10;;
14692;SDS011;7435;50.842;4.258;2022-10-19T11:28:57;3.78;;;2.20;;
14692;SDS011;7435;50.842;4.258;2022-10-19T11:31:33;3.15;;;2.28;;
14692;SDS011;7435;50.842;4.258;2022-10-19T11:34:03;5.47;;;2.35;;
14692;SDS011;7435;50.842;4.258;2022-10-19T11:36:37;2.92;;;1.88;;
14692;SDS011;7435;50.842;4.258;2022-10-19T11:39:15;3.45;;;2.13;;
14692;SDS011;7435;50.842;4.258;2022-10-19T11:41:45;2.45;;;1.70;;
14692;SDS011;7435;50.842;4.258;2022-10-19T11:44:24;6.50;;;1.50;;
14692;SDS011;7435;50.842;4.258;2022-10-19T11:46:57;7.22;;;3.28;;
14692;SDS011;7435;50.842;4.258;2022-10-19T11:49:30;5.05;;;3.05;;
14692;SDS011;7435;50.842;4.258;2022-10-19T11:52:03;5.10;;;2.28;;
14692;SDS011;7435;50.842;4.258;2022-10-19T11:54:34;9.75;;;2.67;;
14692;SDS011;7435;50.842;4.258;2022-10-19T11:57:06;7.18;;;2.55;;
14692;SDS011;7435;50.842;4.258;2022-10-19T11:59:39;1.45;;;1.25;;
14692;SDS011;7435;50.842;4.258;2022-10-19T12:02:13;7.07;;;1.58;;
14692;SDS011;7435;50.842;4.258;2022-10-19T12:07:31;5.93;;;3.20;;
14692;SDS011;7435;50.842;4.258;2022-10-19T12:10:06;4.25;;;3.95;;
14692;SDS011;7435;50.842;4.258;2022-10-19T12:12:36;3.10;;;1.77;;
14692;SDS011;7435;50.842;4.258;2022-10-19T12:15:11;4.88;;;2.15;;
14692;SDS011;7435;50.842;4.258;2022-10-19T12:17:43;6.53;;;1.38;;
14692;SDS011;7435;50.842;4.258;2022-10-19T12:20:15;8.38;;;1.38;;
14692;SDS011;7435;50.842;4.258;2022-10-19T12:22:43;4.97;;;1.35;;
14692;SDS011;7435;50.842;4.258;2022-10-19T12:25:11;7.05;;;3.25;;
14692;SDS011;7435;50.842;4.258;2022-10-19T12:27:39;13.32;;;5.93;;
14692;SDS011;7435;50.842;4.258;2022-10-19T12:30:11;8.90;;;3.17;;
14692;SDS011;7435;50.842;4.258;2022-10-19T12:32:42;6.82;;;3.35;;
14692;SDS011;7435;50.842;4.258;2022-10-19T12:37:55;12.35;;;8.18;;
14692;SDS011;7435;50.842;4.258;2022-10-19T12:40:24;45.58;;;42.53;;
14692;SDS011;7435;50.842;4.258;2022-10-19T12:42:56;8.35;;;7.65;;
14692;SDS011;7435;50.842;4.258;2022-10-19T12:45:26;5.75;;;2.75;;
14692;SDS011;7435;50.842;4.258;2022-10-19T12:48:14;3.50;;;1.83;;
14692;SDS011;7435;50.842;4.258;2022-10-19T12:50:56;10.13;;;1.30;;
14692;SDS011;7435;50.842;4.258;2022-10-19T12:53:27;7.07;;;3.22;;
14692;SDS011;7435;50.842;4.258;2022-10-19T12:55:59;9.68;;;1.83;;
14692;SDS011;7435;50.842;4.258;2022-10-19T12:58:26;10.32;;;2.83;;
14692;SDS011;7435;50.842;4.258;2022-10-19T13:00:57;3.15;;;1.90;;
14692;SDS011;7435;50.842;4.258;2022-10-19T13:03:26;3.05;;;2.40;;
14692;SDS011;7435;50.842;4.258;2022-10-19T13:05:55;7.07;;;2.95;;
14692;SDS011;7435;50.842;4.258;2022-10-19T13:08:27;3.13;;;2.22;;
14692;SDS011;7435;50.842;4.258;2022-10-19T13:11:05;6.28;;;3.45;;
14692;SDS011;7435;50.842;4.258;2022-10-19T13:13:46;7.60;;;1.77;;
14692;SDS011;7435;50.842;4.258;2022-10-19T13:16:36;5.72;;;2.35;;
14692;SDS011;7435;50.842;4.258;2022-10-19T13:19:16;7.57;;;2.50;;
14692;SDS011;7435;50.842;4.258;2022-10-19T13:21:59;7.95;;;2.70;;
14692;SDS011;7435;50.842;4.258;2022-10-19T13:24:31;17.92;;;2.65;;
14692;SDS011;7435;50.842;4.258;2022-10-19T13:29:56;1.45;;;1.35;;
14692;SDS011;7435;50.842;4.258;2022-10-19T13:32:37;4.65;;;1.83;;
14692;SDS011;7435;50.842;4.258;2022-10-19T13:35:24;7.07;;;2.70;;
14692;SDS011;7435;50.842;4.258;2022-10-19T13:40:39;7.38;;;3.63;;
14692;SDS011;7435;50.842;4.258;2022-10-19T13:43:13;8.52;;;4.55;;
14692;SDS011;7435;50.842;4.258;2022-10-19T13:45:42;7.82;;;4.43;;
14692;SDS011;7435;50.842;4.258;2022-10-19T13:48:10;9.27;;;4.18;;
14692;SDS011;7435;50.842;4.258;2022-10-19T13:50:41;13.10;;;4.65;;
14692;SDS011;7435;50.842;4.258;2022-10-19T13:53:12;10.48;;;4.63;;
14692;SDS011;7435;50.842;4.258;2022-10-19T13:58:32;10.90;;;4.90;;
14692;SDS011;7435;50.842;4.258;2022-10-19T14:01:09;12.68;;;5.07;;
14692;SDS011;7435;50.842;4.258;2022-10-19T14:06:24;13.68;;;4.75;;
14692;SDS011;7435;50.842;4.258;2022-10-19T14:09:17;10.85;;;4.07;;
14692;SDS011;7435;50.842;4.258;2022-10-19T14:11:47;8.15;;;4.43;;
14692;SDS011;7435;50.842;4.258;2022-10-19T14:14:18;9.23;;;4.18;;
14692;SDS011;7435;50.842;4.258;2022-10-19T14:16:47;6.78;;;3.92;;
14692;SDS011;7435;50.842;4.258;2022-10-19T14:19:18;10.35;;;4.82;;
14692;SDS011;7435;50.842;4.258;2022-10-19T14:21:51;9.40;;;4.32;;
14692;SDS011;7435;50.842;4.258;2022-10-19T14:24:18;9.23;;;3.97;;
14692;SDS011;7435;50.842;4.258;2022-10-19T14:26:46;7.50;;;4.20;;
14692;SDS011;7435;50.842;4.258;2022-10-19T14:29:13;6.43;;;2.55;;
14692;SDS011;7435;50.842;4.258;2022-10-19T14:31:42;10.30;;;4.25;;
14692;SDS011;7435;50.842;4.258;2022-10-19T14:34:09;10.60;;;3.95;;
14692;SDS011;7435;50.842;4.258;2022-10-19T14:36:38;10.05;;;4.75;;
14692;SDS011;7435;50.842;4.258;2022-10-19T14:39:05;9.60;;;3.95;;
14692;SDS011;7435;50.842;4.258;2022-10-19T14:41:33;7.90;;;4.07;;
14692;SDS011;7435;50.842;4.258;2022-10-19T14:44:01;12.00;;;4.88;;
14692;SDS011;7435;50.842;4.258;2022-10-19T14:46:48;7.15;;;4.05;;
14692;SDS011;7435;50.842;4.258;2022-10-19T14:49:15;9.13;;;4.00;;
14692;SDS011;7435;50.842;4.258;2022-10-19T14:51:43;7.03;;;3.78;;
14692;SDS011;7435;50.842;4.258;2022-10-19T14:54:13;9.00;;;4.03;;
14692;SDS011;7435;50.842;4.258;2022-10-19T14:56:45;10.02;;;4.78;;
14692;SDS011;7435;50.842;4.258;2022-10-19T14:59:17;7.30;;;4.15;;
14692;SDS011;7435;50.842;4.258;2022-10-19T15:01:49;6.68;;;3.85;;
14692;SDS011;7435;50.842;4.258;2022-10-19T15:04:17;9.70;;;3.83;;
14692;SDS011;7435;50.842;4.258;2022-10-19T15:06:46;8.45;;;4.90;;